Time;durP1;ratioP1;P1;durP2;ratioP2;P2;SDS_P1;SDS_P2;PMS_P1;PMS_P2;Temp;Humidity;BMP_temperature;BMP_pressure;BME280_temperature;BME280_humidity;BME280_pressure;Samples;Min_cycle;Max_cycle;Signal;HPM_P1;HPM_P2
2022/06/19 00:01:58;;;;;;;13.15;4.40;;;22.60;99.90;;;;;;4943704;28;20256;-73
2022/06/19 00:04:25;;;;;;;8.85;3.50;;;22.70;99.90;;;;;;4944557;28;20198;-73
2022/06/19 00:06:53;;;;;;;12.20;4.60;;;22.60;99.90;;;;;;4942418;28;20198;-73
2022/06/19 00:09:19;;;;;;;15.27;4.43;;;22.70;99.90;;;;;;4939165;28;20195;-73
2022/06/19 00:11:47;;;;;;;13.13;4.70;;;22.60;99.90;;;;;;4941685;28;20221;-72
2022/06/19 00:14:13;;;;;;;14.63;5.15;;;22.70;99.90;;;;;;4945014;28;20202;-73
2022/06/19 00:16:40;;;;;;;7.70;3.72;;;22.60;99.90;;;;;;4942366;28;20195;-73
2022/06/19 00:19:07;;;;;;;11.35;4.05;;;22.60;99.90;;;;;;4937377;28;20293;-72
2022/06/19 00:21:33;;;;;;;11.98;4.43;;;22.50;99.90;;;;;;4942388;28;20222;-72
2022/06/19 00:24:00;;;;;;;13.52;4.45;;;22.50;99.90;;;;;;4942139;28;20325;-72
2022/06/19 00:26:28;;;;;;;11.45;4.75;;;22.50;99.90;;;;;;4940830;28;20619;-72
2022/06/19 00:28:56;;;;;;;11.75;4.47;;;22.40;99.90;;;;;;4940575;28;20207;-72
2022/06/19 00:31:22;;;;;;;11.63;4.50;;;22.30;99.90;;;;;;4943067;28;20307;-72
2022/06/19 00:33:49;;;;;;;14.75;4.72;;;22.50;99.90;;;;;;4940894;28;20619;-72
2022/06/19 00:36:16;;;;;;;11.70;4.20;;;22.40;99.90;;;;;;4940588;28;20198;-73
2022/06/19 00:38:42;;;;;;;8.75;4.55;;;22.30;99.90;;;;;;4942503;28;20257;-72
2022/06/19 00:41:09;;;;;;;15.70;4.93;;;22.30;99.90;;;;;;4944297;28;20281;-72
2022/06/19 00:43:57;;;;;;;12.85;4.05;;;22.20;99.90;;;;;;4943596;28;20575;-71
2022/06/19 00:46:50;;;;;;;13.95;4.10;;;22.20;99.90;;;;;;4941895;28;20205;-73
2022/06/19 00:49:26;;;;;;;11.48;4.45;;;22.00;99.90;;;;;;4941935;28;20226;-73
2022/06/19 00:52:01;;;;;;;17.05;4.57;;;22.00;99.90;;;;;;4943412;28;20713;-72
2022/06/19 00:54:31;;;;;;;14.30;4.38;;;22.10;99.90;;;;;;4942018;28;20205;-73
2022/06/19 00:56:57;;;;;;;14.80;5.00;;;22.10;99.90;;;;;;4939182;28;20206;-72
2022/06/19 00:59:24;;;;;;;16.65;5.45;;;22.00;99.90;;;;;;4939974;28;20204;-72
2022/06/19 01:01:51;;;;;;;14.77;5.10;;;22.00;99.90;;;;;;4938003;28;20226;-73
2022/06/19 01:04:24;;;;;;;16.38;4.60;;;22.20;99.90;;;;;;4939303;28;20689;-73
2022/06/19 01:06:51;;;;;;;10.27;4.47;;;22.30;99.90;;;;;;4937723;28;20259;-73
2022/06/19 01:09:18;;;;;;;11.38;4.50;;;22.30;99.90;;;;;;4940837;28;20198;-73
2022/06/19 01:11:45;;;;;;;12.50;4.43;;;22.30;99.90;;;;;;4937843;28;20218;-72
2022/06/19 01:14:17;;;;;;;11.88;4.18;;;22.30;99.90;;;;;;4940361;28;20198;-72
2022/06/19 01:16:44;;;;;;;13.73;4.88;;;22.20;99.90;;;;;;4939885;28;20202;-73
2022/06/19 01:19:18;;;;;;;15.52;4.68;;;22.30;99.90;;;;;;4941202;28;20693;-73
2022/06/19 01:21:51;;;;;;;13.15;4.93;;;22.40;99.90;;;;;;4933448;28;20227;-72
2022/06/19 01:24:37;;;;;;;18.25;4.53;;;22.50;99.90;;;;;;4942857;28;20202;-73
2022/06/19 01:27:07;;;;;;;11.10;4.05;;;22.40;99.90;;;;;;4950410;28;20205;-72
2022/06/19 01:29:35;;;;;;;11.25;4.00;;;22.50;99.90;;;;;;4940267;28;20198;-73
2022/06/19 01:32:05;;;;;;;9.88;4.00;;;22.30;99.90;;;;;;4937505;28;20306;-73
2022/06/19 01:34:36;;;;;;;17.10;4.45;;;22.30;99.90;;;;;;4945561;28;20202;-73
2022/06/19 01:37:17;;;;;;;18.25;3.90;;;22.30;99.90;;;;;;4939568;28;20209;-74
2022/06/19 01:39:48;;;;;;;13.40;3.90;;;22.40;99.90;;;;;;4937314;28;20205;-73
2022/06/19 01:42:17;;;;;;;12.13;4.30;;;22.50;99.90;;;;;;4946714;28;20230;-73
2022/06/19 01:44:45;;;;;;;10.77;3.75;;;22.30;99.90;;;;;;4940079;28;20203;-73
2022/06/19 01:47:13;;;;;;;12.02;4.18;;;22.20;99.90;;;;;;4941563;28;21132;-73
2022/06/19 01:49:44;;;;;;;12.98;4.32;;;22.10;99.90;;;;;;4945920;28;20221;-73
2022/06/19 01:52:10;;;;;;;17.02;4.15;;;22.10;99.90;;;;;;4949711;28;20702;-72
2022/06/19 01:54:44;;;;;;;8.35;3.97;;;22.20;99.90;;;;;;4946220;28;20202;-71
2022/06/19 01:57:12;;;;;;;15.50;4.32;;;22.20;99.90;;;;;;4948742;28;20281;-73
2022/06/19 01:59:42;;;;;;;10.95;3.60;;;22.30;99.90;;;;;;4939789;28;20201;-72
2022/06/19 02:02:11;;;;;;;14.85;4.50;;;22.30;99.90;;;;;;4945818;28;23759;-73
2022/06/19 02:04:39;;;;;;;10.55;4.47;;;22.30;99.90;;;;;;4944895;28;20253;-73
2022/06/19 02:07:14;;;;;;;12.27;4.18;;;22.20;99.90;;;;;;4941817;28;20717;-73
2022/06/19 02:09:42;;;;;;;10.88;3.97;;;22.20;99.90;;;;;;4939873;28;20202;-73
2022/06/19 02:12:10;;;;;;;10.95;4.18;;;22.10;99.90;;;;;;4940589;28;20229;-73
2022/06/19 02:14:37;;;;;;;8.70;3.88;;;22.00;99.90;;;;;;4938408;28;20203;-72
2022/06/19 02:17:12;;;;;;;18.25;4.28;;;22.00;99.90;;;;;;4942543;28;20206;-73
2022/06/19 02:19:40;;;;;;;10.68;4.13;;;22.00;99.90;;;;;;4941884;28;20217;-73
2022/06/19 02:22:15;;;;;;;13.25;4.18;;;22.00;99.90;;;;;;4943186;28;20706;-74
2022/06/19 02:24:42;;;;;;;11.00;3.75;;;22.00;99.90;;;;;;4942085;28;20229;-73
2022/06/19 02:27:10;;;;;;;9.35;4.13;;;22.00;99.90;;;;;;4938768;28;20199;-73
2022/06/19 02:29:39;;;;;;;15.10;3.50;;;22.00;99.90;;;;;;4945570;28;20492;-71
2022/06/19 02:32:16;;;;;;;14.77;4.10;;;22.10;99.90;;;;;;4943424;29;20222;-73
2022/06/19 02:34:44;;;;;;;14.07;4.03;;;22.20;99.90;;;;;;4951011;28;20202;-73
2022/06/19 02:37:17;;;;;;;14.57;4.68;;;22.20;99.90;;;;;;4952580;28;20197;-73
2022/06/19 02:39:59;;;;;;;10.93;4.10;;;22.30;99.90;;;;;;4953532;28;20198;-72
2022/06/19 02:42:42;;;;;;;15.00;4.43;;;22.30;99.90;;;;;;4947156;29;20312;-73
2022/06/19 02:45:14;;;;;;;11.73;4.40;;;22.30;99.90;;;;;;4951166;29;20202;-73
2022/06/19 02:47:42;;;;;;;11.27;4.25;;;22.30;99.90;;;;;;4952484;28;20199;-73
2022/06/19 02:50:13;;;;;;;10.02;3.97;;;22.20;99.90;;;;;;4950783;28;20194;-73
2022/06/19 02:52:40;;;;;;;8.45;4.43;;;22.10;99.90;;;;;;4952855;28;20664;-73
2022/06/19 02:55:08;;;;;;;10.45;3.60;;;22.00;99.90;;;;;;4953234;28;20198;-73
2022/06/19 02:57:36;;;;;;;8.70;3.58;;;21.80;99.90;;;;;;4949892;28;20208;-73
2022/06/19 03:00:05;;;;;;;8.45;3.90;;;21.70;99.90;;;;;;4938016;28;20210;-73
2022/06/19 03:02:32;;;;;;;10.18;4.28;;;21.80;99.90;;;;;;4941736;28;20222;-73
2022/06/19 03:05:03;;;;;;;7.13;3.65;;;21.70;99.90;;;;;;4942599;28;20199;-73
2022/06/19 03:07:30;;;;;;;11.10;4.40;;;21.80;99.90;;;;;;4944397;28;20198;-73
2022/06/19 03:09:57;;;;;;;12.75;4.38;;;21.70;99.90;;;;;;4943869;28;20296;-73
2022/06/19 03:12:24;;;;;;;14.05;4.45;;;21.60;99.90;;;;;;4946619;28;20313;-73
2022/06/19 03:14:51;;;;;;;10.32;4.18;;;21.60;99.90;;;;;;4945313;28;20215;-72
2022/06/19 03:17:21;;;;;;;12.18;3.67;;;21.50;99.90;;;;;;4945649;28;20205;-73
2022/06/19 03:19:54;;;;;;;14.77;4.50;;;21.30;99.90;;;;;;4943967;28;20199;-71
2022/06/19 03:22:21;;;;;;;13.45;4.35;;;21.30;99.90;;;;;;4946980;28;20735;-73
2022/06/19 03:24:48;;;;;;;10.80;3.80;;;21.30;99.90;;;;;;4942056;28;20221;-74
2022/06/19 03:27:15;;;;;;;13.25;4.20;;;21.30;99.90;;;;;;4946580;28;20195;-73
2022/06/19 03:29:43;;;;;;;11.60;3.90;;;21.30;99.90;;;;;;4943972;28;20281;-73
2022/06/19 03:32:11;;;;;;;13.70;4.10;;;21.50;99.90;;;;;;4944564;28;20270;-72
2022/06/19 03:34:38;;;;;;;10.18;4.00;;;21.60;99.90;;;;;;4942722;28;20206;-72
2022/06/19 03:37:05;;;;;;;9.70;3.60;;;21.50;99.90;;;;;;4941763;28;20202;-73
2022/06/19 03:39:32;;;;;;;10.88;4.25;;;21.40;99.90;;;;;;4946113;28;20654;-72
2022/06/19 03:42:00;;;;;;;14.18;3.80;;;21.40;99.90;;;;;;4939411;28;20233;-73
2022/06/19 03:44:27;;;;;;;9.00;3.40;;;21.40;99.90;;;;;;4946979;28;20272;-73
2022/06/19 03:46:53;;;;;;;8.93;3.90;;;21.30;99.90;;;;;;4940728;28;20195;-73
2022/06/19 03:49:20;;;;;;;12.45;3.85;;;21.30;99.90;;;;;;4945214;28;20256;-73
2022/06/19 03:51:47;;;;;;;14.00;4.97;;;21.40;99.90;;;;;;4943338;28;20638;-73
2022/06/19 03:54:14;;;;;;;10.75;4.10;;;21.40;99.90;;;;;;4950113;28;20305;-73
2022/06/19 03:56:40;;;;;;;7.82;4.00;;;21.40;99.90;;;;;;4951199;28;20696;-73
2022/06/19 03:59:12;;;;;;;11.10;4.28;;;21.50;99.90;;;;;;4949773;28;20198;-73
2022/06/19 04:01:40;;;;;;;14.82;4.68;;;21.70;99.90;;;;;;4949911;28;20226;-73
2022/06/19 04:04:08;;;;;;;14.82;3.75;;;21.90;99.90;;;;;;4947704;28;20209;-73
2022/06/19 04:06:37;;;;;;;16.48;4.55;;;21.90;99.90;;;;;;4950381;28;20675;-72
2022/06/19 04:09:06;;;;;;;17.38;4.30;;;22.00;99.90;;;;;;4946851;29;20205;-73
2022/06/19 04:11:33;;;;;;;15.82;4.32;;;22.00;99.90;;;;;;4948229;28;20219;-73
2022/06/19 04:14:00;;;;;;;11.23;3.63;;;22.00;99.90;;;;;;4950967;28;20206;-73
2022/06/19 04:16:31;;;;;;;12.57;3.70;;;22.10;99.90;;;;;;4947554;29;20207;-73
2022/06/19 04:19:01;;;;;;;10.50;3.85;;;22.20;99.90;;;;;;4950947;29;20206;-73
2022/06/19 04:21:30;;;;;;;11.27;3.58;;;22.30;99.90;;;;;;4945290;29;20249;-73
2022/06/19 04:23:59;;;;;;;12.75;3.80;;;22.30;99.90;;;;;;4950844;29;20684;-73
2022/06/19 04:26:28;;;;;;;16.10;3.92;;;22.40;99.90;;;;;;4943176;29;20607;-73
2022/06/19 04:28:56;;;;;;;10.02;3.55;;;22.50;99.90;;;;;;4949431;29;20655;-73
2022/06/19 04:31:23;;;;;;;13.20;4.20;;;22.70;99.90;;;;;;4950233;29;20461;-73
2022/06/19 04:33:51;;;;;;;13.80;4.00;;;22.70;99.90;;;;;;4952228;28;20221;-73
2022/06/19 04:36:20;;;;;;;18.27;4.32;;;22.80;99.90;;;;;;4946241;29;20319;-72
2022/06/19 04:38:49;;;;;;;13.38;4.03;;;22.90;99.90;;;;;;4951205;28;20195;-73
2022/06/19 04:41:36;;;;;;;9.25;4.05;;;23.00;99.90;;;;;;4951125;28;20226;-73
2022/06/19 04:44:06;;;;;;;7.68;3.65;;;23.10;99.90;;;;;;4945712;29;20221;-72
2022/06/19 04:46:33;;;;;;;14.63;4.07;;;23.20;99.90;;;;;;4952031;28;20197;-73
2022/06/19 04:49:00;;;;;;;11.60;3.70;;;23.40;99.90;;;;;;4950600;28;20198;-73
2022/06/19 04:51:26;;;;;;;10.18;4.05;;;23.40;99.90;;;;;;4949645;29;20697;-73
2022/06/19 04:53:53;;;;;;;12.32;4.20;;;23.50;99.90;;;;;;4947739;29;20445;-73
2022/06/19 04:56:21;;;;;;;10.07;3.75;;;23.50;99.90;;;;;;4950892;28;20198;-73
2022/06/19 04:58:49;;;;;;;9.27;3.80;;;23.50;99.90;;;;;;4946707;28;20289;-73
2022/06/19 05:01:28;;;;;;;11.93;4.43;;;23.60;99.90;;;;;;4949359;28;20217;-73
2022/06/19 05:03:58;;;;;;;8.25;3.13;;;23.60;99.90;;;;;;4951712;28;20293;-73
2022/06/19 05:06:25;;;;;;;11.45;4.15;;;23.80;99.90;;;;;;4943765;29;20202;-73
2022/06/19 05:08:53;;;;;;;12.48;4.28;;;23.90;99.90;;;;;;4951067;28;20258;-73
2022/06/19 05:11:22;;;;;;;12.93;4.78;;;24.20;99.90;;;;;;4946010;28;20226;-73
2022/06/19 05:13:49;;;;;;;13.20;4.30;;;24.30;99.90;;;;;;4951463;28;20194;-72
2022/06/19 05:16:18;;;;;;;15.70;4.47;;;24.40;99.90;;;;;;4945676;28;20198;-73
2022/06/19 05:18:46;;;;;;;7.90;3.47;;;24.50;99.90;;;;;;4947923;28;20289;-73
2022/06/19 05:21:20;;;;;;;10.35;3.90;;;24.60;99.90;;;;;;4953534;29;20266;-72
2022/06/19 05:23:48;;;;;;;11.88;3.97;;;24.80;99.90;;;;;;4954842;29;20213;-72
2022/06/19 05:26:27;;;;;;;9.77;4.18;;;24.90;99.90;;;;;;4954516;29;20202;-73
2022/06/19 05:28:56;;;;;;;8.07;4.25;;;25.00;99.90;;;;;;4955859;28;20201;-73
2022/06/19 05:31:23;;;;;;;9.20;4.47;;;25.10;99.90;;;;;;4948508;28;20225;-73
2022/06/19 05:33:50;;;;;;;13.80;3.95;;;25.20;99.90;;;;;;4947838;28;20273;-73
2022/06/19 05:36:18;;;;;;;11.45;4.05;;;25.50;99.90;;;;;;4951509;28;20194;-73
2022/06/19 05:38:46;;;;;;;15.10;4.35;;;25.50;99.90;;;;;;4947973;29;20201;-73
2022/06/19 05:41:13;;;;;;;11.23;4.25;;;25.50;99.90;;;;;;4945713;29;20595;-73
2022/06/19 05:43:39;;;;;;;12.15;4.18;;;25.50;99.90;;;;;;4949207;28;20225;-73
2022/06/19 05:46:15;;;;;;;12.55;4.45;;;25.70;99.90;;;;;;4943642;28;20206;-73
2022/06/19 05:48:43;;;;;;;15.45;4.90;;;25.90;99.90;;;;;;4949984;29;20658;-73
2022/06/19 05:51:13;;;;;;;13.32;4.85;;;26.10;99.90;;;;;;4946284;28;20713;-73
2022/06/19 05:53:43;;;;;;;13.75;4.15;;;26.10;99.90;;;;;;4948056;29;20221;-73
2022/06/19 05:56:10;;;;;;;16.80;4.72;;;26.30;99.90;;;;;;4945756;28;20618;-74
2022/06/19 05:58:38;;;;;;;14.20;4.70;;;26.40;99.90;;;;;;4944610;29;20194;-72
2022/06/19 06:01:05;;;;;;;15.85;4.15;;;26.60;99.90;;;;;;4948196;29;20198;-73
2022/06/19 06:03:32;;;;;;;17.48;4.78;;;26.70;99.90;;;;;;4945746;28;20225;-73
2022/06/19 06:06:04;;;;;;;11.90;4.40;;;26.90;99.90;;;;;;4950575;29;20258;-73
2022/06/19 06:08:33;;;;;;;16.23;4.57;;;27.00;99.90;;;;;;4944686;29;20296;-73
2022/06/19 06:11:00;;;;;;;12.88;4.32;;;27.10;99.90;;;;;;4952173;28;20599;-73
2022/06/19 06:13:29;;;;;;;13.35;4.60;;;27.30;99.90;;;;;;4948726;28;20206;-72
2022/06/19 06:15:56;;;;;;;13.75;5.03;;;27.50;99.90;;;;;;4945786;28;20206;-73
2022/06/19 06:18:23;;;;;;;15.00;4.18;;;27.50;99.90;;;;;;4945394;28;20692;-73
2022/06/19 06:20:55;;;;;;;13.02;4.85;;;27.70;99.90;;;;;;4941148;28;20211;-73
2022/06/19 06:23:23;;;;;;;15.68;4.78;;;28.10;99.90;;;;;;4945066;28;20221;-72
2022/06/19 06:25:58;;;;;;;15.60;4.95;;;28.30;99.90;;;;;;4940317;28;20199;-73
2022/06/19 06:28:25;;;;;;;13.30;4.72;;;28.40;99.90;;;;;;4941314;28;20194;-73
2022/06/19 06:30:52;;;;;;;13.88;4.70;;;28.50;99.90;;;;;;4939627;28;20254;-72
2022/06/19 06:33:19;;;;;;;13.40;4.82;;;28.40;99.90;;;;;;4943624;28;20206;-73
2022/06/19 06:35:46;;;;;;;13.52;5.00;;;28.30;99.90;;;;;;4941911;28;20242;-72
2022/06/19 06:38:13;;;;;;;10.98;4.97;;;28.30;99.90;;;;;;4941585;28;20209;-73
2022/06/19 06:40:40;;;;;;;16.83;5.30;;;28.30;99.90;;;;;;4942706;28;20257;-73
2022/06/19 06:43:07;;;;;;;17.55;5.57;;;28.40;99.90;;;;;;4938263;28;20495;-73
2022/06/19 06:45:34;;;;;;;15.23;5.15;;;28.60;99.90;;;;;;4944196;28;20673;-73
2022/06/19 06:48:00;;;;;;;11.40;5.25;;;28.60;99.90;;;;;;4941489;28;20211;-70
2022/06/19 06:50:27;;;;;;;8.52;5.32;;;28.60;99.90;;;;;;4942558;28;20201;-73
2022/06/19 06:52:54;;;;;;;18.00;6.03;;;28.70;99.90;;;;;;4939153;28;20218;-73
2022/06/19 06:55:21;;;;;;;13.57;5.20;;;28.60;99.90;;;;;;4942490;28;20198;-73
2022/06/19 06:57:47;;;;;;;13.65;5.65;;;28.60;99.90;;;;;;4939567;28;20254;-72
2022/06/19 07:00:18;;;;;;;14.25;5.70;;;28.90;99.90;;;;;;4947520;28;20225;-73
2022/06/19 07:02:44;;;;;;;13.85;5.78;;;29.20;99.90;;;;;;4939918;28;20230;-73
2022/06/19 07:05:11;;;;;;;11.95;5.75;;;29.40;99.90;;;;;;4942502;28;20206;-72
2022/06/19 07:07:38;;;;;;;13.73;5.85;;;30.10;99.90;;;;;;4939624;28;20230;-73
2022/06/19 07:10:05;;;;;;;13.13;5.95;;;30.60;99.90;;;;;;4942591;28;20199;-73
2022/06/19 07:12:33;;;;;;;20.33;5.93;;;31.50;99.90;;;;;;4942201;28;20218;-73
2022/06/19 07:14:59;;;;;;;12.00;6.00;;;32.30;99.90;;;;;;4944356;28;20198;-73
2022/06/19 07:17:27;;;;;;;14.88;6.32;;;33.10;99.90;;;;;;4945038;28;20689;-73
2022/06/19 07:19:54;;;;;;;11.15;6.15;;;33.40;99.90;;;;;;4940229;28;20583;-73
2022/06/19 07:22:21;;;;;;;12.52;6.38;;;33.30;99.90;;;;;;4940536;28;20230;-72
2022/06/19 07:24:47;;;;;;;12.93;6.50;;;33.30;99.90;;;;;;4940920;28;20221;-73
2022/06/19 07:27:14;;;;;;;17.10;6.10;;;33.40;99.90;;;;;;4941638;28;20198;-72
2022/06/19 07:29:43;;;;;;;11.80;6.07;;;33.90;99.90;;;;;;4941700;28;20206;-73
2022/06/19 07:32:12;;;;;;;13.45;6.30;;;34.00;99.90;;;;;;4942892;28;20218;-73
2022/06/19 07:34:41;;;;;;;9.55;5.60;;;34.40;99.90;;;;;;4943434;28;20210;-72
2022/06/19 07:37:07;;;;;;;11.43;5.82;;;34.40;99.70;;;;;;4947542;28;20202;-73
2022/06/19 07:39:35;;;;;;;15.40;6.70;;;34.30;99.40;;;;;;4940971;28;20786;-72
2022/06/19 07:42:04;;;;;;;10.00;6.45;;;33.80;99.80;;;;;;4940194;28;20226;-73
2022/06/19 07:44:31;;;;;;;10.60;6.10;;;33.60;99.90;;;;;;4942728;28;20224;-73
2022/06/19 07:52:29;;;;;;;12.20;6.35;;;33.80;99.60;;;;;;4947108;29;20640;-73
2022/06/19 07:54:56;;;;;;;12.00;6.35;;;34.00;99.90;;;;;;4943386;28;20613;-73
2022/06/19 07:57:23;;;;;;;15.48;6.35;;;34.20;99.50;;;;;;4944883;28;20210;-73
2022/06/19 07:59:50;;;;;;;10.98;6.78;;;34.30;99.40;;;;;;4947202;28;20202;-73
2022/06/19 08:02:17;;;;;;;11.15;7.00;;;34.30;99.80;;;;;;4945704;28;20652;-73
2022/06/19 08:04:44;;;;;;;12.20;6.80;;;34.40;99.50;;;;;;4948362;28;20202;-73
2022/06/19 08:07:14;;;;;;;14.40;6.68;;;34.40;99.00;;;;;;4950801;28;20202;-73
2022/06/19 08:09:42;;;;;;;12.13;6.30;;;34.30;98.50;;;;;;4950490;28;20203;-73
2022/06/19 08:12:09;;;;;;;9.13;6.55;;;34.20;99.10;;;;;;4946876;29;20226;-73
2022/06/19 08:14:36;;;;;;;10.48;6.03;;;34.40;98.90;;;;;;4947738;28;20222;-72
2022/06/19 08:17:04;;;;;;;9.93;6.55;;;34.50;98.90;;;;;;4948291;28;20201;-73
2022/06/19 08:19:31;;;;;;;9.88;6.25;;;34.50;98.50;;;;;;4948855;28;20210;-74
2022/06/19 08:21:57;;;;;;;10.82;6.47;;;34.20;99.30;;;;;;4942446;28;20233;-73
2022/06/19 08:24:24;;;;;;;10.77;7.03;;;34.10;98.60;;;;;;4939994;28;20221;-73
2022/06/19 08:27:06;;;;;;;13.77;6.88;;;34.20;98.30;;;;;;4940978;28;20195;-73
2022/06/19 08:29:34;;;;;;;10.60;6.50;;;33.80;98.30;;;;;;4938800;28;20198;-73
2022/06/19 08:32:00;;;;;;;10.05;7.00;;;33.70;99.00;;;;;;4940719;28;20310;-72
2022/06/19 08:34:27;;;;;;;9.45;6.80;;;33.90;98.80;;;;;;4939142;28;20226;-73
2022/06/19 08:36:56;;;;;;;13.70;6.90;;;33.70;98.60;;;;;;4938891;28;20209;-74
2022/06/19 08:39:23;;;;;;;10.15;7.35;;;33.70;98.50;;;;;;4941744;28;20202;-73
2022/06/19 08:42:11;;;;;;;15.90;6.90;;;33.60;98.60;;;;;;4938748;28;20214;-73
2022/06/19 08:44:57;;;;;;;11.05;6.75;;;33.60;98.50;;;;;;4947481;28;20190;-73
2022/06/19 08:47:53;;;;;;;9.85;6.80;;;33.70;98.20;;;;;;4950178;29;20218;-72
2022/06/19 08:50:42;;;;;;;12.40;7.13;;;33.60;98.20;;;;;;4943645;28;20205;-72
2022/06/19 08:53:15;;;;;;;11.02;6.78;;;33.60;98.20;;;;;;4948423;29;20222;-73
2022/06/19 08:55:55;;;;;;;10.05;6.20;;;33.70;97.10;;;;;;4949518;28;20563;-72
2022/06/19 08:58:29;;;;;;;10.25;6.78;;;33.70;97.20;;;;;;4944138;28;20201;-73
2022/06/19 09:01:07;;;;;;;11.73;7.25;;;33.70;97.10;;;;;;4946308;28;20206;-73
2022/06/19 09:06:48;;;;;;;10.57;6.93;;;34.20;97.00;;;;;;4948595;28;20194;-73
2022/06/19 09:09:32;;;;;;;14.15;6.65;;;34.40;96.50;;;;;;4947452;28;20568;-73
2022/06/19 09:12:30;;;;;;;11.57;6.97;;;34.30;96.40;;;;;;4948264;28;20210;-74
2022/06/19 09:15:14;;;;;;;11.95;6.88;;;34.00;96.20;;;;;;4946739;28;20198;-72
2022/06/19 09:18:01;;;;;;;11.57;7.35;;;34.10;96.80;;;;;;4949987;29;20260;-73
2022/06/19 09:20:44;;;;;;;13.25;7.22;;;34.20;96.90;;;;;;4944316;28;20198;-73
2022/06/19 09:23:28;;;;;;;10.18;6.53;;;34.40;96.70;;;;;;4944989;29;20617;-73
2022/06/19 09:26:00;;;;;;;11.52;6.85;;;34.60;96.20;;;;;;4944830;28;20623;-73
2022/06/19 09:28:49;;;;;;;12.13;7.20;;;34.50;96.70;;;;;;4943903;29;20490;-73
2022/06/19 09:31:42;;;;;;;12.10;6.57;;;34.40;96.40;;;;;;4949504;28;20319;-71
2022/06/19 09:34:25;;;;;;;10.50;6.95;;;34.60;96.50;;;;;;4947977;29;20223;-73
2022/06/19 09:37:02;;;;;;;11.38;7.00;;;34.70;96.80;;;;;;4948781;29;20700;-73
2022/06/19 09:39:33;;;;;;;10.05;6.88;;;35.00;96.40;;;;;;4949824;28;20257;-73
2022/06/19 09:42:10;;;;;;;10.32;6.38;;;35.20;95.80;;;;;;4947386;28;20545;-73
2022/06/19 09:44:54;;;;;;;12.13;6.85;;;35.30;95.40;;;;;;4948978;28;20217;-73
2022/06/19 09:47:33;;;;;;;11.93;7.55;;;35.30;95.20;;;;;;4953251;28;20206;-74
2022/06/19 09:50:22;;;;;;;9.20;6.85;;;35.40;95.10;;;;;;4945379;28;20610;-74
2022/06/19 09:53:09;;;;;;;16.17;6.63;;;35.30;94.90;;;;;;4954551;28;20610;-74
2022/06/19 09:55:47;;;;;;;16.58;6.22;;;35.10;95.40;;;;;;4952380;29;20194;-73
2022/06/19 09:58:18;;;;;;;13.63;6.20;;;35.30;94.40;;;;;;4955843;28;20216;-74
2022/06/19 10:00:47;;;;;;;11.88;6.07;;;35.10;94.40;;;;;;4947602;28;20582;-74
2022/06/19 10:03:56;;;;;;;9.73;6.05;;;35.20;94.20;;;;;;4948933;28;20236;-72
2022/06/19 10:06:41;;;;;;;15.00;5.55;;;35.50;94.00;;;;;;4949835;28;20198;-72
2022/06/19 10:09:21;;;;;;;10.93;6.38;;;35.30;93.90;;;;;;4947965;28;20354;-71
2022/06/19 10:11:49;;;;;;;9.15;6.30;;;35.30;93.70;;;;;;4953703;28;20241;-71
2022/06/19 10:14:35;;;;;;;12.25;5.90;;;35.30;94.10;;;;;;4953324;28;20661;-71
2022/06/19 10:17:18;;;;;;;10.88;5.63;;;35.50;93.80;;;;;;4954701;29;20636;-71
2022/06/19 10:20:01;;;;;;;11.50;6.07;;;35.50;94.40;;;;;;4956336;28;20207;-71
2022/06/19 10:22:51;;;;;;;14.75;5.82;;;35.50;93.70;;;;;;4952196;29;20225;-71
2022/06/19 10:25:42;;;;;;;10.57;6.03;;;35.60;93.70;;;;;;4952987;28;20567;-71
2022/06/19 10:28:26;;;;;;;10.57;6.68;;;35.60;93.50;;;;;;4954743;29;20194;-71
2022/06/19 10:31:46;;;;;;;9.05;6.18;;;35.40;94.20;;;;;;4955072;28;20198;-70
2022/06/19 10:34:30;;;;;;;9.88;5.95;;;35.50;93.80;;;;;;4958845;28;20198;-71
2022/06/19 10:37:06;;;;;;;12.98;6.05;;;35.50;94.30;;;;;;4956376;28;20190;-72
2022/06/19 10:39:56;;;;;;;7.82;5.82;;;35.70;94.20;;;;;;4954113;28;20248;-71
2022/06/19 10:43:03;;;;;;;14.40;6.18;;;35.40;94.60;;;;;;4955619;29;20221;-71
2022/06/19 10:45:32;;;;;;;13.02;6.50;;;35.30;94.60;;;;;;4948853;28;20194;-71
2022/06/19 10:48:27;;;;;;;8.07;5.93;;;35.30;94.70;;;;;;4956163;28;20280;-72
2022/06/19 10:51:32;;;;;;;13.02;6.10;;;35.30;94.50;;;;;;4956271;29;20208;-71
2022/06/19 10:54:11;;;;;;;10.73;6.05;;;35.00;94.80;;;;;;4955339;29;20569;-72
2022/06/19 10:56:46;;;;;;;8.95;5.95;;;34.80;95.20;;;;;;4950974;29;20234;-71
2022/06/19 10:59:13;;;;;;;12.63;6.55;;;34.80;95.40;;;;;;4952140;28;20198;-72
2022/06/19 11:04:37;;;;;;;12.57;6.20;;;34.40;95.40;;;;;;4949746;29;20245;-72
2022/06/19 11:07:11;;;;;;;14.20;6.50;;;34.60;95.60;;;;;;4950106;29;20740;-72
2022/06/19 11:09:47;;;;;;;14.95;6.80;;;34.20;96.00;;;;;;4952808;28;20610;-72
2022/06/19 11:12:23;;;;;;;9.25;6.03;;;34.10;96.90;;;;;;4949902;29;20221;-71
2022/06/19 11:14:55;;;;;;;13.18;6.00;;;34.00;98.00;;;;;;4951438;28;20244;-73
2022/06/19 11:17:32;;;;;;;13.70;6.07;;;33.70;98.20;;;;;;4953344;28;20214;-72
2022/06/19 11:20:17;;;;;;;13.52;6.40;;;33.20;98.70;;;;;;4953280;28;20740;-70
2022/06/19 11:22:49;;;;;;;9.88;6.30;;;32.90;99.00;;;;;;4946863;28;20236;-71
2022/06/19 11:25:18;;;;;;;10.52;6.00;;;32.50;99.60;;;;;;4950811;28;20198;-71
2022/06/19 11:27:54;;;;;;;14.25;6.38;;;32.50;99.80;;;;;;4951774;28;20213;-71
2022/06/19 11:30:47;;;;;;;11.60;5.70;;;32.50;99.90;;;;;;4953400;28;20194;-71
2022/06/19 11:33:38;;;;;;;9.32;5.75;;;32.50;99.80;;;;;;4949231;29;20891;-72
2022/06/19 11:36:08;;;;;;;9.73;5.63;;;32.60;99.60;;;;;;4947827;28;20240;-71
2022/06/19 11:38:49;;;;;;;10.63;5.85;;;32.50;99.60;;;;;;4951905;29;20209;-71
2022/06/19 11:41:29;;;;;;;11.88;6.22;;;32.30;99.90;;;;;;4945359;29;20215;-72
2022/06/19 11:44:20;;;;;;;13.88;6.18;;;32.40;99.90;;;;;;4944686;29;20954;-71
2022/06/19 11:46:55;;;;;;;10.50;6.88;;;32.60;99.90;;;;;;4951166;29;20382;-71
2022/06/19 11:49:36;;;;;;;11.88;6.72;;;32.70;99.00;;;;;;4951341;28;20275;-71
2022/06/19 11:52:18;;;;;;;14.98;7.45;;;32.60;98.90;;;;;;4943952;28;20691;-72
2022/06/19 11:54:48;;;;;;;12.30;7.25;;;32.30;99.10;;;;;;4942190;28;20686;-73
2022/06/19 11:57:30;;;;;;;12.05;6.80;;;32.50;99.30;;;;;;4939535;28;20202;-73
2022/06/19 12:00:01;;;;;;;13.07;6.55;;;32.60;98.60;;;;;;4940001;28;20206;-73
2022/06/19 12:02:32;;;;;;;13.05;6.45;;;32.50;98.50;;;;;;4939204;28;20219;-73
2022/06/19 12:05:02;;;;;;;12.00;6.43;;;32.60;98.50;;;;;;4940711;28;20218;-73
2022/06/19 12:07:34;;;;;;;13.82;6.80;;;32.80;98.20;;;;;;4938106;28;20264;-72
2022/06/19 12:10:06;;;;;;;11.43;7.20;;;32.80;98.30;;;;;;4940271;28;20206;-73
2022/06/19 12:12:34;;;;;;;12.85;7.18;;;33.00;97.90;;;;;;4940242;29;20229;-72
2022/06/19 12:15:12;;;;;;;17.05;6.80;;;33.10;97.90;;;;;;4941139;29;20198;-73
2022/06/19 12:17:43;;;;;;;14.27;7.22;;;33.20;97.80;;;;;;4940905;29;20194;-72
2022/06/19 12:20:10;;;;;;;15.15;7.10;;;33.50;97.60;;;;;;4943169;28;20211;-73
2022/06/19 12:22:50;;;;;;;11.88;6.82;;;33.70;97.30;;;;;;4940286;28;20332;-72
2022/06/19 12:25:23;;;;;;;18.25;6.70;;;33.90;96.90;;;;;;4938339;28;20510;-73
2022/06/19 12:28:04;;;;;;;10.00;7.15;;;34.20;97.00;;;;;;4940544;28;20216;-73
2022/06/19 12:30:36;;;;;;;13.93;7.10;;;34.20;96.50;;;;;;4940621;28;20202;-73
2022/06/19 12:33:10;;;;;;;10.50;6.40;;;34.10;96.50;;;;;;4937527;28;20710;-73
2022/06/19 12:35:43;;;;;;;13.35;7.13;;;34.30;96.90;;;;;;4940954;29;20202;-73
2022/06/19 12:38:15;;;;;;;12.77;6.88;;;34.70;96.40;;;;;;4939313;28;20195;-74
2022/06/19 12:41:18;;;;;;;13.38;6.72;;;35.00;96.60;;;;;;4940801;28;20221;-73
2022/06/19 12:44:00;;;;;;;13.05;6.55;;;35.40;95.50;;;;;;4943344;28;20234;-73
2022/06/19 12:46:42;;;;;;;11.30;6.80;;;35.40;95.10;;;;;;4944536;28;20202;-73
2022/06/19 12:49:24;;;;;;;11.82;6.78;;;35.20;95.00;;;;;;4950274;28;20203;-74
2022/06/19 12:52:03;;;;;;;12.98;7.10;;;35.30;95.30;;;;;;4951353;28;20214;-72
2022/06/19 12:54:47;;;;;;;10.93;6.70;;;34.90;94.90;;;;;;4946181;28;20220;-72
2022/06/19 12:57:26;;;;;;;10.93;6.20;;;35.30;96.10;;;;;;4938390;28;20214;-73
2022/06/19 13:00:23;;;;;;;14.77;6.28;;;35.70;95.40;;;;;;4939280;29;20239;-73
2022/06/19 13:02:52;;;;;;;17.25;7.32;;;35.70;94.50;;;;;;4946937;28;20214;-73
2022/06/19 13:05:50;;;;;;;12.63;6.88;;;35.90;94.80;;;;;;4940415;29;20809;-75
2022/06/19 13:08:22;;;;;;;19.83;7.07;;;35.90;94.30;;;;;;4940580;29;20209;-73
2022/06/19 13:11:31;;;;;;;11.70;6.60;;;36.00;94.70;;;;;;4939740;28;20199;-74
2022/06/19 13:14:06;;;;;;;12.73;6.38;;;36.30;94.50;;;;;;4948825;28;20198;-73
2022/06/19 13:16:36;;;;;;;9.45;6.30;;;36.50;94.40;;;;;;4940034;28;20194;-72
2022/06/19 13:19:15;;;;;;;13.65;7.03;;;36.60;94.40;;;;;;4946423;28;20202;-72